Krotz Springs, Louisiana
Current Conditions -  °F | °C
As of 9:15 AM on Thursday 30 Oct 2014 (Local Time) from KHZR Reporting Station
Clear Clear  
Wind Chill: 59°   Ceiling: Unl
Heat Index: 59°   Visibility: 10mi
Dew Point: 47°   Wind: 3mph
Humidity: 64%   Direction: 50°NE
Pressure: 30.15"   Gusts: NA
Location:  30.54°N, 91.75°W
Report Text: KHZR 301415Z AUTO 05003KT 10SM CLR 15/08 A3015 RMK AO2 T01490081
Loading
Personal Weather Stations






























Interactive Weather Map
Tropical Storm Tracking
New forecast layout! Learn more

10-Day Weather Forecast

Advertisements
Track Severe Weather on mobile